Time;durP1;ratioP1;P1;durP2;ratioP2;P2;SDS_P1;SDS_P2;PMS_P1;PMS_P2;Temp;Humidity;BMP_temperature;BMP_pressure;BME280_temperature;BME280_humidity;BME280_pressure;Samples;Min_cycle;Max_cycle;Signal;HPM_P1;HPM_P2
2022/11/11 00:00:16;;;;;;;6.63;2.97;;;;;;;12.06;77.53;102537.38;6070486;29;20244;-74
2022/11/11 00:03:56;;;;;;;2.53;1.50;;;;;;;12.05;77.47;102550.03;6072389;29;20685;-73
2022/11/11 00:07:35;;;;;;;3.27;1.83;;;;;;;12.07;78.24;102550.78;6082835;29;20233;-76
2022/11/11 00:11:16;;;;;;;6.20;1.83;;;;;;;12.09;78.15;102554.25;6067975;29;20271;-75
2022/11/11 00:14:55;;;;;;;2.33;1.87;;;;;;;12.08;77.74;102539.00;6073383;29;20221;-75
2022/11/11 00:26:30;;;;;;;2.63;1.70;;;;;;;12.13;77.65;102535.97;6058637;29;20256;-74
2022/11/11 00:30:11;;;;;;;2.33;2.13;;;;;;;12.14;78.69;102546.69;6074960;29;20252;-74
2022/11/11 00:33:53;;;;;;;3.37;2.33;;;;;;;12.13;77.84;102553.06;6076264;29;20228;-75
2022/11/11 00:37:33;;;;;;;2.87;2.17;;;;;;;12.15;78.08;102544.84;6080908;29;20241;-77
2022/11/11 00:41:14;;;;;;;11.33;3.20;;;;;;;12.14;78.49;102530.44;6071594;29;20260;-77
2022/11/11 00:44:54;;;;;;;4.50;2.10;;;;;;;12.17;78.00;102526.69;6072110;29;20455;-75
2022/11/11 00:52:32;;;;;;;9.57;2.20;;;;;;;12.20;77.72;102521.94;6078312;29;20522;-75
2022/11/11 00:56:12;;;;;;;3.50;2.10;;;;;;;12.16;78.06;102539.31;6072732;29;20239;-74
2022/11/11 00:59:51;;;;;;;5.60;2.00;;;;;;;12.18;78.67;102532.00;6069109;29;20236;-75
2022/11/11 01:03:31;;;;;;;3.83;2.80;;;;;;;12.20;78.88;102540.88;6082969;29;20255;-74
2022/11/11 01:07:11;;;;;;;4.10;2.57;;;;;;;12.23;78.21;102535.25;6085687;29;20700;-75
2022/11/11 01:10:51;;;;;;;6.97;3.27;;;;;;;12.25;78.84;102536.00;6070695;29;20247;-75
2022/11/11 01:14:30;;;;;;;2.63;2.40;;;;;;;12.28;78.00;102541.22;6065081;29;20229;-74
2022/11/11 01:18:11;;;;;;;7.10;2.30;;;;;;;12.32;77.98;102544.56;6081646;29;20256;-74
2022/11/11 01:21:50;;;;;;;10.50;2.27;;;;;;;12.36;78.15;102544.25;6079193;29;20229;-74
2022/11/11 01:25:32;;;;;;;3.27;2.90;;;;;;;12.33;78.59;102551.72;6058263;29;20237;-74
2022/11/11 01:29:13;;;;;;;8.87;2.53;;;;;;;12.37;78.74;102564.03;6071817;29;20260;-73
2022/11/11 01:32:53;;;;;;;2.63;2.43;;;;;;;12.35;78.59;102545.19;6083419;29;20479;-73
2022/11/11 01:36:32;;;;;;;3.60;2.67;;;;;;;12.34;78.50;102545.31;6074855;29;20260;-74
2022/11/11 01:40:12;;;;;;;3.07;2.00;;;;;;;12.31;78.53;102543.69;6077198;29;20252;-75
2022/11/11 01:43:52;;;;;;;5.40;2.30;;;;;;;12.32;78.39;102539.16;6074557;29;20723;-74
2022/11/11 01:51:36;;;;;;;3.93;2.57;;;;;;;12.33;78.53;102539.03;6073849;29;20260;-75
2022/11/11 01:55:18;;;;;;;6.03;3.87;;;;;;;12.29;78.98;102532.09;6074557;29;20845;-74
2022/11/11 01:59:03;;;;;;;10.37;2.83;;;;;;;12.26;79.47;102545.84;6076955;29;20323;-75
2022/11/11 02:02:47;;;;;;;6.90;2.93;;;;;;;12.26;79.33;102532.34;6074985;29;22177;-76
2022/11/11 02:06:27;;;;;;;3.40;2.30;;;;;;;12.24;79.04;102528.00;6074751;29;20256;-74
2022/11/11 02:10:08;;;;;;;5.27;2.20;;;;;;;12.20;79.32;102530.06;6072403;29;20252;-75
2022/11/11 02:17:43;;;;;;;6.33;3.43;;;;;;;12.16;80.06;102524.97;6070452;29;20572;-74
2022/11/11 02:21:29;;;;;;;4.20;3.80;;;;;;;12.07;79.34;102523.75;6081413;29;20256;-74
2022/11/11 02:25:14;;;;;;;3.10;2.30;;;;;;;12.03;79.84;102515.00;6078834;29;20240;-73
2022/11/11 02:28:55;;;;;;;3.67;2.13;;;;;;;11.97;79.77;102519.97;6077593;29;20232;-74
2022/11/11 02:32:34;;;;;;;3.17;2.13;;;;;;;11.89;79.99;102519.63;6083892;29;20236;-74
2022/11/11 02:36:15;;;;;;;5.87;1.80;;;;;;;11.88;80.21;102513.34;6075569;29;20228;-75
2022/11/11 02:40:01;;;;;;;3.93;2.93;;;;;;;11.79;80.73;102507.69;6074558;29;20236;-75
2022/11/11 02:43:42;;;;;;;2.43;2.23;;;;;;;11.82;80.39;102502.97;6076907;29;20776;-74
2022/11/11 02:47:21;;;;;;;3.67;2.30;;;;;;;11.80;80.90;102512.13;6085488;29;20236;-74
2022/11/11 02:51:01;;;;;;;3.00;2.30;;;;;;;11.74;80.52;102507.13;6075609;29;21590;-74
2022/11/11 02:54:42;;;;;;;4.30;2.80;;;;;;;11.78;80.23;102511.38;6073604;29;20232;-74
2022/11/11 02:58:22;;;;;;;3.53;2.53;;;;;;;11.68;80.68;102523.78;6086029;29;20610;-73
2022/11/11 03:02:03;;;;;;;8.97;2.70;;;;;;;11.71;80.67;102534.34;6085088;29;20232;-73
2022/11/11 03:05:42;;;;;;;3.60;2.10;;;;;;;11.72;80.84;102561.25;6075775;29;20236;-75
2022/11/11 03:09:22;;;;;;;3.50;2.40;;;;;;;11.76;80.19;102546.59;6078561;29;20259;-75
2022/11/11 03:13:01;;;;;;;6.83;3.17;;;;;;;11.78;80.77;102546.50;6087204;29;20244;-73
2022/11/11 03:28:34;;;;;;;2.77;2.30;;;;;;;11.66;80.60;102547.28;6082911;29;20236;-74
2022/11/11 03:32:13;;;;;;;4.43;3.43;;;;;;;11.61;80.91;102555.69;6084805;29;20264;-74
2022/11/11 03:35:54;;;;;;;3.30;2.23;;;;;;;11.63;80.69;102555.56;6074287;29;20520;-74
2022/11/11 03:39:32;;;;;;;3.13;2.07;;;;;;;11.53;81.03;102554.47;6079078;29;20292;-76
2022/11/11 03:43:12;;;;;;;4.60;3.53;;;;;;;11.56;80.43;102555.13;6084378;29;20791;-74
2022/11/11 03:46:51;;;;;;;5.23;2.50;;;;;;;11.47;80.92;102576.47;6086404;29;20259;-74
2022/11/11 03:50:31;;;;;;;12.17;3.50;;;;;;;11.47;81.10;102565.66;6076156;29;20237;-76
2022/11/11 03:54:12;;;;;;;3.47;2.60;;;;;;;11.48;80.82;102568.25;6076926;29;20610;-76
2022/11/11 03:57:51;;;;;;;5.43;2.40;;;;;;;11.45;80.97;102579.28;6082366;29;20642;-75
2022/11/11 04:17:19;;;;;;;5.67;3.00;;;;;;;11.26;81.57;102576.88;6087104;29;20244;-75
2022/11/11 04:32:51;;;;;;;2.83;2.43;;;;;;;11.18;82.14;102583.75;6086895;29;20236;-74
2022/11/11 04:36:31;;;;;;;3.80;3.30;;;;;;;11.08;82.43;102579.88;6054623;29;20240;-73
2022/11/11 04:48:09;;;;;;;4.33;2.43;;;;;;;11.14;81.59;102606.50;6084515;29;20662;-75
2022/11/11 04:59:43;;;;;;;6.53;3.70;;;;;;;11.07;82.15;102589.84;6074704;29;20233;-75
2022/11/11 05:03:23;;;;;;;4.80;3.67;;;;;;;11.13;82.32;102593.97;6082491;29;20620;-75
2022/11/11 05:11:01;;;;;;;6.20;2.97;;;;;;;11.00;82.58;102591.19;6074101;29;20869;-75
2022/11/11 05:22:34;;;;;;;3.47;3.03;;;;;;;10.86;82.47;102580.41;6077977;29;20236;-74
2022/11/11 05:26:14;;;;;;;3.17;2.90;;;;;;;10.78;82.76;102582.72;6072295;29;20375;-76
2022/11/11 05:29:54;;;;;;;2.40;1.97;;;;;;;10.88;82.64;102572.19;6070459;29;20228;-74
2022/11/11 05:33:33;;;;;;;4.43;3.13;;;;;;;10.76;82.77;102576.56;6083712;29;20247;-75
2022/11/11 05:37:13;;;;;;;6.13;3.40;;;;;;;10.76;83.04;102599.94;6083237;29;20235;-76
2022/11/11 05:40:54;;;;;;;4.87;2.93;;;;;;;10.69;82.79;102596.75;6070220;29;20527;-74
2022/11/11 05:44:35;;;;;;;4.37;2.70;;;;;;;10.80;82.35;102596.97;6064128;29;20240;-74
2022/11/11 05:48:15;;;;;;;9.20;3.47;;;;;;;10.83;83.05;102594.06;6081703;29;20260;-73
2022/11/11 05:51:55;;;;;;;8.20;4.07;;;;;;;10.83;83.21;102585.09;6075135;29;20247;-74
2022/11/11 05:55:35;;;;;;;7.30;3.47;;;;;;;10.76;83.01;102606.22;6067575;29;20264;-75
2022/11/11 05:59:15;;;;;;;6.17;3.40;;;;;;;10.78;83.35;102593.50;6070568;29;20515;-75
2022/11/11 06:03:02;;;;;;;6.33;4.07;;;;;;;10.84;83.07;102598.50;6070610;29;20233;-74
2022/11/11 06:06:41;;;;;;;4.47;3.07;;;;;;;10.91;82.61;102599.00;6072100;29;20244;-74
2022/11/11 06:10:32;;;;;;;8.73;5.37;;;;;;;10.82;83.51;102596.88;6066725;29;20224;-74
2022/11/11 06:14:12;;;;;;;6.73;4.30;;;;;;;10.87;83.08;102602.81;6072520;29;20654;-75
2022/11/11 06:17:51;;;;;;;5.57;5.10;;;;;;;10.85;83.75;102611.03;6081680;29;20240;-75
2022/11/11 06:21:55;;;;;;;7.20;4.33;;;;;;;10.88;83.72;102605.44;6065578;29;20228;-75
2022/11/11 06:29:31;;;;;;;7.17;6.10;;;;;;;10.85;83.34;102624.50;6072541;29;20543;-75
2022/11/11 06:33:10;;;;;;;7.23;4.50;;;;;;;10.83;83.61;102639.06;6084296;29;20235;-73
2022/11/11 06:36:51;;;;;;;7.77;4.37;;;;;;;10.95;84.25;102624.84;6086672;29;20587;-73
2022/11/11 06:40:30;;;;;;;6.90;4.13;;;;;;;10.96;83.58;102638.22;6069938;29;20264;-76
2022/11/11 06:44:10;;;;;;;5.97;4.93;;;;;;;10.82;84.25;102640.03;6063396;29;20240;-76
2022/11/11 06:47:49;;;;;;;9.93;4.60;;;;;;;10.83;84.58;102652.53;6079102;29;20236;-74
2022/11/11 06:51:28;;;;;;;11.37;7.00;;;;;;;10.90;84.37;102659.31;6073645;29;20277;-74
2022/11/11 06:55:10;;;;;;;13.87;7.53;;;;;;;10.87;84.70;102663.06;6065026;29;21239;-78
2022/11/11 06:58:49;;;;;;;6.63;5.00;;;;;;;10.77;85.29;102675.38;6066880;29;20245;-79
2022/11/11 07:02:28;;;;;;;8.10;5.73;;;;;;;10.81;85.41;102679.63;6082013;29;20617;-72
2022/11/11 07:06:07;;;;;;;7.23;5.80;;;;;;;10.79;85.66;102692.34;6067826;29;20268;-71
2022/11/11 07:09:47;;;;;;;10.63;5.33;;;;;;;10.79;85.77;102686.06;6078532;29;20340;-72
2022/11/11 07:13:27;;;;;;;8.00;5.50;;;;;;;10.76;85.58;102684.44;6076787;29;20244;-72
2022/11/11 07:17:06;;;;;;;14.37;6.37;;;;;;;10.72;85.69;102684.72;6084077;29;20244;-77
2022/11/11 07:20:46;;;;;;;15.23;5.57;;;;;;;10.68;86.35;102685.88;6072482;29;20235;-74
2022/11/11 07:24:26;;;;;;;7.93;5.53;;;;;;;10.61;86.62;102693.47;6075280;29;20248;-75
2022/11/11 07:28:05;;;;;;;6.43;5.47;;;;;;;10.63;86.50;102690.66;6080128;29;20272;-75
2022/11/11 07:31:46;;;;;;;6.30;4.50;;;;;;;10.60;86.35;102694.41;6071869;29;20252;-78
2022/11/11 07:35:26;;;;;;;16.17;8.23;;;;;;;10.63;86.52;102704.16;6060222;29;20241;-76
2022/11/11 07:39:05;;;;;;;13.47;6.37;;;;;;;10.64;86.47;102711.28;6047383;29;21669;-75
2022/11/11 07:42:45;;;;;;;11.50;5.93;;;;;;;10.69;86.91;102704.66;6074261;29;20264;-80
2022/11/11 07:46:25;;;;;;;10.33;6.07;;;;;;;10.60;87.44;102715.97;6064135;29;20244;-79
2022/11/11 07:50:08;;;;;;;8.37;6.27;;;;;;;10.60;87.56;102705.19;6068927;29;20240;-77
2022/11/11 07:53:47;;;;;;;6.87;5.30;;;;;;;10.64;87.97;102704.03;6058256;29;20241;-79
2022/11/11 07:57:29;;;;;;;10.97;6.97;;;;;;;10.73;87.17;102705.31;6078882;29;20244;-76
2022/11/11 08:01:08;;;;;;;9.10;8.17;;;;;;;10.62;87.89;102714.06;6069588;29;20252;-74
2022/11/11 08:04:48;;;;;;;8.63;7.00;;;;;;;10.69;87.78;102726.22;6066226;29;20232;-75
2022/11/11 08:08:29;;;;;;;10.73;5.93;;;;;;;10.60;88.13;102731.31;6084887;29;20886;-77
2022/11/11 08:16:07;;;;;;;12.70;5.90;;;;;;;10.65;88.75;102735.47;6076287;29;20240;-75
2022/11/11 08:19:46;;;;;;;16.03;7.43;;;;;;;10.74;87.70;102734.94;6075714;29;20502;-76
2022/11/11 08:23:31;;;;;;;7.77;5.97;;;;;;;10.62;88.95;102741.03;6086448;29;20236;-72
2022/11/11 08:27:12;;;;;;;8.60;5.60;;;;;;;10.64;88.64;102735.56;6084745;29;20241;-73
2022/11/11 08:30:51;;;;;;;10.67;6.47;;;;;;;10.71;88.29;102743.19;6066550;29;20232;-77
2022/11/11 08:34:30;;;;;;;7.47;5.67;;;;;;;10.76;88.46;102753.72;6076441;29;20224;-77
2022/11/11 08:38:10;;;;;;;11.33;5.60;;;;;;;10.76;88.04;102751.88;6082370;29;20263;-77
2022/11/11 08:41:49;;;;;;;10.67;6.50;;;;;;;10.85;87.85;102756.72;6082568;29;20245;-72
2022/11/11 08:45:30;;;;;;;11.03;5.77;;;;;;;10.80;87.74;102763.34;6067637;29;20240;-74
2022/11/11 08:49:10;;;;;;;6.70;6.10;;;;;;;10.76;88.06;102762.69;6067652;29;20260;-72
2022/11/11 08:52:51;;;;;;;9.23;7.80;;;;;;;10.88;87.66;102771.84;6079997;29;21421;-74
2022/11/11 08:56:29;;;;;;;7.63;5.80;;;;;;;10.90;87.94;102776.22;6063425;29;20521;-75
2022/11/11 09:00:11;;;;;;;7.83;5.73;;;;;;;10.97;87.28;102765.94;6066549;29;20224;-75
2022/11/11 09:03:51;;;;;;;11.20;6.73;;;;;;;10.82;87.89;102769.53;6069262;29;20240;-74
2022/11/11 09:07:31;;;;;;;8.37;6.60;;;;;;;11.01;87.54;102773.72;6084551;29;20256;-74
2022/11/11 09:11:11;;;;;;;8.43;6.90;;;;;;;11.05;87.47;102778.00;6071361;29;20256;-79
2022/11/11 09:14:51;;;;;;;12.30;6.33;;;;;;;11.00;87.28;102788.19;6081027;29;20264;-76
2022/11/11 09:18:31;;;;;;;7.80;4.90;;;;;;;11.00;87.41;102793.59;6081141;29;20232;-75
2022/11/11 09:22:12;;;;;;;6.83;4.57;;;;;;;10.96;87.32;102800.13;6089480;29;20236;-75
2022/11/11 09:25:51;;;;;;;12.90;8.50;;;;;;;10.97;87.52;102799.16;6063374;29;20241;-74
2022/11/11 09:29:30;;;;;;;10.23;6.83;;;;;;;10.93;87.39;102797.59;6074391;29;20232;-73
2022/11/11 09:33:11;;;;;;;6.20;5.50;;;;;;;10.85;87.66;102801.72;6086318;29;20240;-74
2022/11/11 09:36:50;;;;;;;9.13;5.80;;;;;;;10.95;87.95;102800.22;6084521;29;20240;-74
2022/11/11 09:40:47;;;;;;;10.53;7.23;;;;;;;10.88;87.83;102809.63;6071029;29;20232;-74
2022/11/11 09:44:41;;;;;;;9.83;6.53;;;;;;;10.92;88.55;102811.19;6056607;29;20228;-75
2022/11/11 09:48:41;;;;;;;9.13;6.30;;;;;;;11.00;88.13;102804.38;6080278;29;20228;-77
2022/11/11 09:52:23;;;;;;;7.43;4.83;;;;;;;10.99;87.17;102809.88;6084326;29;20245;-73
2022/11/11 09:56:08;;;;;;;9.40;5.63;;;;;;;11.06;87.15;102803.13;6039012;29;20255;-75
2022/11/11 09:59:52;;;;;;;9.27;6.43;;;;;;;10.99;87.83;102802.63;6074566;29;20236;-79
2022/11/11 10:03:39;;;;;;;13.20;7.83;;;;;;;10.96;87.51;102810.91;6086273;29;20638;-73
2022/11/11 10:07:26;;;;;;;10.43;7.23;;;;;;;10.99;87.58;102809.88;6084235;29;20240;-74
2022/11/11 10:11:15;;;;;;;7.80;7.03;;;;;;;11.15;87.26;102816.09;6073600;29;20241;-77
2022/11/11 10:14:54;;;;;;;6.93;5.47;;;;;;;11.12;86.36;102825.22;6071205;29;20488;-73
2022/11/11 10:18:54;;;;;;;10.33;6.60;;;;;;;11.14;85.89;102822.44;6083533;29;20237;-78
2022/11/11 10:22:36;;;;;;;8.13;6.60;;;;;;;11.16;85.51;102825.91;6081825;29;20232;-80
2022/11/11 10:26:20;;;;;;;8.57;6.20;;;;;;;11.24;85.59;102826.34;6064657;29;20240;-75
2022/11/11 10:30:01;;;;;;;11.60;7.27;;;;;;;11.20;84.44;102831.03;6078301;29;20545;-78
2022/11/11 10:33:47;;;;;;;10.57;5.83;;;;;;;11.16;84.68;102836.69;6081073;29;20240;-76
2022/11/11 10:37:40;;;;;;;6.33;4.97;;;;;;;11.17;85.14;102842.03;6090258;29;20232;-75
2022/11/11 10:41:26;;;;;;;7.40;6.60;;;;;;;11.27;84.48;102832.41;6075599;29;20777;-78
2022/11/11 10:45:14;;;;;;;11.37;6.10;;;;;;;11.32;84.11;102833.97;6077313;29;20248;-79
2022/11/11 10:48:59;;;;;;;10.93;7.17;;;;;;;11.37;83.03;102834.56;6071590;29;20257;-74
2022/11/11 10:52:41;;;;;;;10.97;6.30;;;;;;;11.26;83.35;102836.06;6084148;29;20229;-74
2022/11/11 10:56:29;;;;;;;12.10;6.73;;;;;;;11.32;83.54;102833.97;6075063;29;20253;-82
2022/11/11 11:00:11;;;;;;;7.67;6.10;;;;;;;11.25;83.75;102845.13;6060139;29;20240;-72
2022/11/11 11:03:55;;;;;;;8.80;6.63;;;;;;;11.48;83.21;102842.88;6080960;29;20232;-68
2022/11/11 11:07:40;;;;;;;11.17;7.57;;;;;;;11.60;81.85;102823.22;6086851;29;20631;-68
2022/11/11 11:11:29;;;;;;;6.83;5.27;;;;;;;11.54;82.73;102824.44;6077764;29;20646;-68
2022/11/11 11:15:16;;;;;;;7.60;5.97;;;;;;;11.64;82.55;102825.63;6068163;29;20244;-68
2022/11/11 11:19:18;;;;;;;8.70;6.03;;;;;;;11.48;82.42;102832.94;6084369;29;20236;-72
2022/11/11 11:23:00;;;;;;;9.90;6.37;;;;;;;11.42;82.77;102836.00;6086514;29;20232;-70
2022/11/11 11:26:46;;;;;;;9.17;5.97;;;;;;;11.50;82.62;102822.91;6059769;29;20252;-68
2022/11/11 11:30:26;;;;;;;8.50;5.60;;;;;;;11.41;82.62;102830.72;6073486;29;20259;-68
2022/11/11 11:34:06;;;;;;;8.27;6.20;;;;;;;11.44;82.71;102841.31;6067184;29;20725;-67
2022/11/11 11:37:49;;;;;;;12.93;5.93;;;;;;;11.44;83.64;102836.78;6086125;29;20264;-70
2022/11/11 11:41:40;;;;;;;10.87;7.93;;;;;;;11.42;82.60;102835.13;6070481;29;20244;-69
2022/11/11 11:45:27;;;;;;;9.50;5.17;;;;;;;11.39;83.79;102838.03;6073836;29;20512;-71
2022/11/11 11:49:19;;;;;;;8.60;6.47;;;;;;;11.61;82.83;102833.06;6077325;29;20682;-70
2022/11/11 11:53:11;;;;;;;8.43;7.07;;;;;;;11.73;81.73;102835.91;6077329;29;20272;-68
2022/11/11 11:56:56;;;;;;;6.97;5.27;;;;;;;11.66;82.88;102845.34;6086231;29;20503;-70
2022/11/11 12:00:43;;;;;;;7.83;4.87;;;;;;;11.78;81.62;102833.78;6061646;29;20584;-79
2022/11/11 12:04:45;;;;;;;9.60;8.07;;;;;;;11.68;82.42;102824.50;6077231;29;20244;-79
2022/11/11 12:08:44;;;;;;;10.50;6.33;;;;;;;11.32;83.07;102831.25;6087001;29;20264;-76
2022/11/11 12:12:32;;;;;;;11.37;5.63;;;;;;;11.51;82.34;102829.19;6081719;29;20233;-77
2022/11/11 12:16:25;;;;;;;6.30;5.00;;;;;;;11.56;82.23;102836.03;6072236;29;20240;-74
2022/11/11 12:20:16;;;;;;;8.20;6.77;;;;;;;11.41;82.66;102838.81;6074089;29;20228;-78
2022/11/11 12:24:07;;;;;;;7.50;6.37;;;;;;;11.28;83.18;102841.41;6073187;29;21943;-73
2022/11/11 12:27:56;;;;;;;8.40;7.40;;;;;;;11.20;82.90;102847.22;6089292;29;20244;-72
2022/11/11 12:31:53;;;;;;;11.67;6.23;;;;;;;11.32;82.48;102851.03;6068884;29;20241;-78
2022/11/11 12:35:49;;;;;;;11.73;6.97;;;;;;;11.29;82.60;102840.41;6075307;29;20260;-77
2022/11/11 12:39:55;;;;;;;8.07;6.07;;;;;;;11.34;82.17;102850.94;6065660;29;20595;-79
2022/11/11 12:43:40;;;;;;;8.77;4.70;;;;;;;11.37;82.63;102856.16;6081723;29;20221;-80
2022/11/11 12:47:30;;;;;;;8.30;6.20;;;;;;;11.35;81.78;102852.69;6074709;29;20631;-78
2022/11/11 12:51:19;;;;;;;7.87;5.70;;;;;;;11.39;81.25;102851.53;6056344;29;20271;-78
2022/11/11 12:55:13;;;;;;;8.73;7.13;;;;;;;11.35;81.82;102853.53;6065615;29;20723;-77
2022/11/11 12:59:00;;;;;;;9.50;4.50;;;;;;;11.37;81.32;102848.91;6070633;29;20240;-78
2022/11/11 13:03:08;;;;;;;8.97;6.60;;;;;;;11.45;81.37;102843.06;6087145;29;20229;-78
2022/11/11 13:07:05;;;;;;;7.23;6.23;;;;;;;11.48;81.23;102849.13;6084432;29;20225;-79
2022/11/11 13:10:51;;;;;;;5.73;4.77;;;;;;;11.53;81.51;102840.75;6071691;29;20583;-77
2022/11/11 13:14:50;;;;;;;7.33;6.67;;;;;;;11.63;80.63;102847.34;6071208;29;20231;-78
2022/11/11 13:18:43;;;;;;;6.63;5.17;;;;;;;11.50;81.48;102857.13;6084152;29;20255;-79
2022/11/11 13:22:25;;;;;;;6.17;5.30;;;;;;;11.47;81.35;102865.44;6080014;29;20263;-79
2022/11/11 13:26:22;;;;;;;5.60;4.83;;;;;;;11.61;81.20;102863.66;6056866;29;20301;-78
2022/11/11 13:30:31;;;;;;;9.00;5.77;;;;;;;11.71;81.01;102862.16;6056390;29;20244;-78
2022/11/11 13:34:15;;;;;;;7.60;6.20;;;;;;;11.66;80.95;102857.97;6067534;29;20229;-82
2022/11/11 13:37:55;;;;;;;6.33;5.23;;;;;;;11.65;81.17;102865.19;6084554;29;20240;-78
2022/11/11 13:41:39;;;;;;;8.83;5.30;;;;;;;11.58;81.47;102871.91;6067449;29;20633;-78
2022/11/11 13:45:26;;;;;;;7.50;5.57;;;;;;;11.58;82.29;102874.63;6070346;29;20233;-79
2022/11/11 13:49:10;;;;;;;9.30;5.87;;;;;;;11.73;81.53;102872.84;6048251;29;20247;-79
2022/11/11 13:52:58;;;;;;;8.37;5.57;;;;;;;11.83;80.96;102879.41;6081150;29;20232;-79
2022/11/11 13:56:42;;;;;;;8.53;5.00;;;;;;;11.82;80.93;102869.59;6073780;29;20244;-82
2022/11/11 14:00:27;;;;;;;5.80;5.10;;;;;;;11.86;80.73;102874.72;6071326;29;20233;-80
2022/11/11 14:04:08;;;;;;;8.63;6.20;;;;;;;11.78;82.42;102873.44;6076714;29;20239;-79
2022/11/11 14:07:53;;;;;;;5.80;4.63;;;;;;;11.79;81.72;102883.28;6086807;29;20602;-80
2022/11/11 14:11:35;;;;;;;7.17;5.30;;;;;;;11.72;82.32;102885.47;6073603;29;20244;-78
2022/11/11 14:15:40;;;;;;;6.40;4.63;;;;;;;11.78;82.80;102881.56;6082249;29;20248;-78
2022/11/11 14:19:30;;;;;;;7.10;4.70;;;;;;;11.79;82.32;102888.69;6077523;29;20303;-78
2022/11/11 14:23:30;;;;;;;7.97;7.17;;;;;;;11.70;82.88;102884.69;6091703;29;20217;-78
2022/11/11 14:27:26;;;;;;;6.17;5.53;;;;;;;11.70;83.73;102886.56;6089509;29;20750;-78
2022/11/11 14:31:35;;;;;;;9.20;5.90;;;;;;;11.66;84.10;102890.38;6079951;29;20942;-78
2022/11/11 14:35:25;;;;;;;7.53;5.97;;;;;;;11.68;83.87;102893.91;6075571;29;20248;-79
2022/11/11 14:42:48;;;;;;;6.10;5.50;;;;;;;11.74;84.56;102893.50;6195974;28;20961;-78
2022/11/11 14:46:28;;;;;;;7.63;5.90;;;;;;;11.83;83.62;102901.91;6209828;28;20233;-78
2022/11/11 14:50:43;;;;;;;7.83;5.83;;;;;;;11.85;83.71;102899.97;6181168;28;20225;-78
2022/11/11 14:55:01;;;;;;;9.67;5.57;;;;;;;11.91;83.20;102904.16;6167562;28;20615;-78
2022/11/11 14:58:43;;;;;;;6.60;5.07;;;;;;;11.84;84.58;102895.56;6173211;28;20234;-77
2022/11/11 15:02:27;;;;;;;10.20;7.80;;;;;;;11.82;84.35;102896.59;6177833;28;20260;-77
2022/11/11 15:06:12;;;;;;;7.07;5.40;;;;;;;11.88;83.88;102897.09;6197327;28;20569;-78
2022/11/11 15:10:16;;;;;;;8.33;5.67;;;;;;;11.84;84.19;102900.97;6189916;28;20232;-78
2022/11/11 15:14:21;;;;;;;7.43;4.57;;;;;;;11.86;84.13;102903.56;6171792;28;20237;-78
2022/11/11 15:18:11;;;;;;;7.53;5.93;;;;;;;11.95;83.99;102903.00;6193045;28;20217;-78
2022/11/11 15:22:04;;;;;;;6.90;5.90;;;;;;;11.98;83.28;102897.38;6196893;28;20249;-77
2022/11/11 15:25:52;;;;;;;7.00;5.63;;;;;;;11.88;83.42;102902.50;6222140;28;20224;-77
2022/11/11 15:29:57;;;;;;;5.57;5.03;;;;;;;12.14;84.86;102908.97;6197329;28;20228;-77
2022/11/11 15:33:46;;;;;;;6.00;4.17;;;;;;;12.44;84.83;102900.75;6199882;28;20241;-78
2022/11/11 15:37:27;;;;;;;5.60;5.10;;;;;;;12.48;82.89;102900.47;6186707;28;20687;-79
2022/11/11 15:41:22;;;;;;;7.50;6.73;;;;;;;12.11;83.33;102900.19;6206583;28;20236;-77
2022/11/11 15:45:22;;;;;;;6.20;5.53;;;;;;;12.07;83.40;102912.16;6192859;28;20228;-77
2022/11/11 15:49:01;;;;;;;5.57;5.07;;;;;;;12.05;83.04;102904.16;6181592;28;21003;-78
2022/11/11 15:52:41;;;;;;;8.57;4.80;;;;;;;12.15;83.20;102915.25;6171891;28;20237;-77
2022/11/11 15:56:29;;;;;;;6.50;5.30;;;;;;;12.23;82.62;102911.09;6168809;28;20241;-77
2022/11/11 16:00:29;;;;;;;6.00;5.20;;;;;;;12.12;83.28;102919.00;6160516;28;20234;-77
2022/11/11 16:04:09;;;;;;;6.60;5.43;;;;;;;12.03;83.17;102925.03;6160781;28;20643;-77
2022/11/11 16:07:49;;;;;;;9.20;5.83;;;;;;;12.02;84.05;102920.56;6172509;28;20238;-78
2022/11/11 16:11:28;;;;;;;6.67;5.03;;;;;;;12.01;83.70;102926.94;6164905;28;20249;-77
2022/11/11 16:15:09;;;;;;;21.20;16.93;;;;;;;12.33;84.13;102919.53;6165932;28;20610;-77
2022/11/11 16:18:54;;;;;;;11.33;8.57;;;;;;;12.36;82.97;102930.13;6144127;28;20229;-78
2022/11/11 16:22:38;;;;;;;6.90;5.73;;;;;;;12.29;82.45;102929.66;6156126;28;20360;-77
2022/11/11 16:26:19;;;;;;;13.00;10.10;;;;;;;12.31;82.93;102927.72;6167677;28;20233;-76
2022/11/11 16:30:16;;;;;;;14.67;10.93;;;;;;;12.28;82.59;102937.88;6161741;28;20543;-77
2022/11/11 16:33:57;;;;;;;7.43;6.53;;;;;;;12.26;82.98;102935.25;6158273;28;20241;-77
2022/11/11 16:37:51;;;;;;;4.80;4.37;;;;;;;12.29;82.71;102937.75;6172202;28;20229;-78
2022/11/11 16:41:32;;;;;;;6.43;5.10;;;;;;;12.29;82.85;102940.47;6177491;28;20238;-77
2022/11/11 16:45:20;;;;;;;8.00;4.90;;;;;;;12.30;82.29;102939.50;6174891;28;20234;-76
2022/11/11 16:49:12;;;;;;;5.90;5.17;;;;;;;12.40;82.07;102937.97;6165853;28;20270;-77
2022/11/11 16:52:54;;;;;;;5.87;5.00;;;;;;;12.44;81.91;102941.31;6133669;28;20226;-76
2022/11/11 16:56:36;;;;;;;7.67;5.37;;;;;;;12.42;81.65;102943.25;6117340;28;20226;-77
2022/11/11 17:00:18;;;;;;;10.83;6.83;;;;;;;12.37;82.11;102940.84;6116803;28;20827;-76
2022/11/11 17:04:00;;;;;;;6.03;5.13;;;;;;;12.33;82.27;102942.00;6009735;28;20233;-76
2022/11/11 17:07:42;;;;;;;7.37;4.93;;;;;;;12.35;81.86;102945.47;6036371;28;22248;-76
2022/11/11 17:11:43;;;;;;;12.37;9.27;;;;;;;12.49;81.72;102945.50;6014212;28;20237;-79
2022/11/11 17:15:22;;;;;;;23.27;15.87;;;;;;;12.51;81.33;102943.56;6055657;28;20233;-77
2022/11/11 17:19:03;;;;;;;11.03;7.93;;;;;;;12.46;81.56;102940.28;5964063;28;20385;-75
2022/11/11 17:22:48;;;;;;;7.07;5.57;;;;;;;12.45;81.39;102940.38;6010487;28;21058;-75
2022/11/11 17:26:28;;;;;;;9.03;7.70;;;;;;;12.55;81.57;102941.53;6102812;28;20234;-76
2022/11/11 17:30:09;;;;;;;7.43;6.40;;;;;;;12.47;81.26;102947.44;6097933;28;20231;-76
2022/11/11 17:33:48;;;;;;;10.13;7.33;;;;;;;12.50;81.60;102947.22;6108759;28;20578;-77
2022/11/11 17:37:28;;;;;;;13.10;10.70;;;;;;;12.46;81.61;102948.38;6138063;28;20233;-77
2022/11/11 17:41:08;;;;;;;11.57;6.60;;;;;;;12.41;82.19;102941.53;6145496;28;20322;-74
2022/11/11 17:44:49;;;;;;;18.17;12.73;;;;;;;12.45;82.54;102946.66;6166666;28;20254;-75
2022/11/11 17:48:28;;;;;;;14.97;11.00;;;;;;;12.99;86.34;102938.63;6181394;28;20249;-77
2022/11/11 17:52:08;;;;;;;16.30;9.33;;;;;;;13.43;85.98;102940.13;6165484;28;20241;-79
2022/11/11 17:55:49;;;;;;;106.13;96.83;;;;;;;13.93;86.53;102941.22;6164722;28;20222;-78
2022/11/11 17:59:29;;;;;;;529.23;479.87;;;;;;;14.41;85.31;102937.78;6178907;28;20241;-78
2022/11/11 18:03:09;;;;;;;134.50;122.73;;;;;;;13.70;78.85;102934.69;6174533;28;20548;-78
2022/11/11 18:06:48;;;;;;;143.73;124.20;;;;;;;14.00;82.82;102937.94;6174594;28;20249;-74
2022/11/11 18:10:27;;;;;;;27.10;23.43;;;;;;;13.95;81.18;102936.53;6179669;28;20225;-70
2022/11/11 18:14:07;;;;;;;8.77;6.73;;;;;;;13.47;78.60;102940.81;6155687;28;20277;-77
2022/11/11 18:17:47;;;;;;;13.40;8.40;;;;;;;13.31;78.78;102942.78;6176074;28;20241;-78
2022/11/11 18:21:27;;;;;;;22.43;16.07;;;;;;;13.16;79.67;102951.97;6171472;28;20246;-77
2022/11/11 18:25:07;;;;;;;19.60;13.30;;;;;;;13.04;79.79;102950.03;6170826;28;20230;-77
2022/11/11 18:28:47;;;;;;;11.53;8.20;;;;;;;13.00;79.80;102951.19;6163301;28;20778;-77
2022/11/11 18:32:28;;;;;;;19.00;14.37;;;;;;;12.89;80.56;102954.63;6171637;28;20759;-76
2022/11/11 18:36:10;;;;;;;19.67;10.03;;;;;;;12.76;81.27;102954.56;6175406;28;20234;-77
2022/11/11 18:39:49;;;;;;;13.63;10.23;;;;;;;12.76;80.99;102959.09;6166387;28;20229;-76
2022/11/11 18:43:32;;;;;;;20.87;10.13;;;;;;;12.77;81.43;102949.97;6173908;28;20234;-76
2022/11/11 18:47:14;;;;;;;11.57;7.07;;;;;;;12.62;82.07;102954.56;6167977;28;20335;-76
2022/11/11 18:50:55;;;;;;;6.20;5.60;;;;;;;12.49;81.92;102948.22;6149437;28;20605;-76
2022/11/11 18:54:34;;;;;;;10.97;8.47;;;;;;;12.46;81.98;102947.50;6159992;28;20577;-76